sensor_id;sensor_type;location;lat;lon;timestamp;pressure;altitude;pressure_sealevel;temperature;humidity
13124;BME280;6627;50.920;12.050;2023-04-21T00:01:13;98651.28;;;14.24;51.00
13124;BME280;6627;50.920;12.050;2023-04-21T00:03:41;98667.53;;;14.59;49.83
13124;BME280;6627;50.920;12.050;2023-04-21T00:06:09;98604.56;;;14.13;50.36
13124;BME280;6627;50.920;12.050;2023-04-21T00:08:37;98589.47;;;13.86;51.47
13124;BME280;6627;50.920;12.050;2023-04-21T00:11:05;98529.06;;;13.55;51.53
13124;BME280;6627;50.920;12.050;2023-04-21T00:13:33;98564.13;;;13.48;52.66
13124;BME280;6627;50.920;12.050;2023-04-21T00:16:01;98654.88;;;14.46;50.75
13124;BME280;6627;50.920;12.050;2023-04-21T00:18:30;98519.66;;;13.44;51.66
13124;BME280;6627;50.920;12.050;2023-04-21T00:20:57;98448.78;;;12.67;53.11
13124;BME280;6627;50.920;12.050;2023-04-21T00:23:24;98471.75;;;12.96;52.96
13124;BME280;6627;50.920;12.050;2023-04-21T00:25:52;98529.56;;;13.40;52.44
13124;BME280;6627;50.920;12.050;2023-04-21T00:28:19;98607.84;;;13.89;52.37
13124;BME280;6627;50.920;12.050;2023-04-21T00:30:47;98544.09;;;13.52;52.28
13124;BME280;6627;50.920;12.050;2023-04-21T00:33:14;98502.06;;;13.32;51.98
13124;BME280;6627;50.920;12.050;2023-04-21T00:35:42;98573.72;;;14.01;50.60
13124;BME280;6627;50.920;12.050;2023-04-21T00:38:10;98562.44;;;13.81;50.89
13124;BME280;6627;50.920;12.050;2023-04-21T00:40:37;98474.28;;;13.01;52.01
13124;BME280;6627;50.920;12.050;2023-04-21T00:43:06;98562.78;;;13.71;51.38
13124;BME280;6627;50.920;12.050;2023-04-21T00:45:34;98385.19;;;12.51;52.29
13124;BME280;6627;50.920;12.050;2023-04-21T00:48:01;98468.28;;;12.69;53.75
13124;BME280;6627;50.920;12.050;2023-04-21T00:50:29;98503.91;;;12.94;53.71
13124;BME280;6627;50.920;12.050;2023-04-21T00:52:58;98486.50;;;12.60;54.87
13124;BME280;6627;50.920;12.050;2023-04-21T00:55:26;98468.28;;;12.52;54.26
13124;BME280;6627;50.920;12.050;2023-04-21T00:57:54;98506.00;;;12.62;55.10
13124;BME280;6627;50.920;12.050;2023-04-21T01:00:23;98483.63;;;12.48;54.89
13124;BME280;6627;50.920;12.050;2023-04-21T01:02:50;98546.72;;;13.14;53.43
13124;BME280;6627;50.920;12.050;2023-04-21T01:05:17;98555.81;;;13.18;53.59
13124;BME280;6627;50.920;12.050;2023-04-21T01:07:45;98601.53;;;13.68;52.37
13124;BME280;6627;50.920;12.050;2023-04-21T01:10:14;98510.13;;;13.03;52.73
13124;BME280;6627;50.920;12.050;2023-04-21T01:12:42;98522.56;;;13.38;51.51
13124;BME280;6627;50.920;12.050;2023-04-21T01:15:11;98538.88;;;13.38;52.17
13124;BME280;6627;50.920;12.050;2023-04-21T01:17:39;98471.16;;;12.64;53.72
13124;BME280;6627;50.920;12.050;2023-04-21T01:20:09;98483.56;;;13.00;52.75
13124;BME280;6627;50.920;12.050;2023-04-21T01:22:40;98408.69;;;12.29;53.45
13124;BME280;6627;50.920;12.050;2023-04-21T01:25:10;98546.66;;;13.57;51.85
13124;BME280;6627;50.920;12.050;2023-04-21T01:27:38;98635.34;;;14.44;50.05
13124;BME280;6627;50.920;12.050;2023-04-21T01:30:07;98482.78;;;12.99;52.30
13124;BME280;6627;50.920;12.050;2023-04-21T01:32:35;98536.97;;;13.30;52.07
13124;BME280;6627;50.920;12.050;2023-04-21T01:35:05;98539.16;;;13.46;51.68
13124;BME280;6627;50.920;12.050;2023-04-21T01:37:33;98489.13;;;13.21;51.00
13124;BME280;6627;50.920;12.050;2023-04-21T01:40:06;98553.03;;;13.61;51.17
13124;BME280;6627;50.920;12.050;2023-04-21T01:42:38;98406.94;;;12.42;52.76
13124;BME280;6627;50.920;12.050;2023-04-21T01:45:07;98459.31;;;12.77;52.03
13124;BME280;6627;50.920;12.050;2023-04-21T01:47:35;98421.47;;;12.29;53.27
13124;BME280;6627;50.920;12.050;2023-04-21T01:50:04;98458.53;;;12.42;53.91
13124;BME280;6627;50.920;12.050;2023-04-21T01:52:31;98503.13;;;12.76;53.69
13124;BME280;6627;50.920;12.050;2023-04-21T01:54:59;98574.69;;;13.41;52.78
13124;BME280;6627;50.920;12.050;2023-04-21T01:57:28;98588.41;;;13.70;51.56
13124;BME280;6627;50.920;12.050;2023-04-21T01:59:56;98570.91;;;13.80;50.72
13124;BME280;6627;50.920;12.050;2023-04-21T02:02:24;98487.41;;;12.99;52.17
13124;BME280;6627;50.920;12.050;2023-04-21T02:04:51;98527.00;;;13.43;50.84
13124;BME280;6627;50.920;12.050;2023-04-21T02:07:18;98639.75;;;14.27;50.12
13124;BME280;6627;50.920;12.050;2023-04-21T02:09:45;98497.78;;;13.23;50.80
13124;BME280;6627;50.920;12.050;2023-04-21T02:12:13;98519.84;;;13.30;51.06
13124;BME280;6627;50.920;12.050;2023-04-21T02:14:41;98582.63;;;13.63;51.15
13124;BME280;6627;50.920;12.050;2023-04-21T02:17:08;98514.91;;;13.23;51.18
13124;BME280;6627;50.920;12.050;2023-04-21T02:19:36;98552.56;;;13.68;50.32
13124;BME280;6627;50.920;12.050;2023-04-21T02:22:03;98468.84;;;13.01;51.01
13124;BME280;6627;50.920;12.050;2023-04-21T02:24:31;98505.28;;;13.17;51.08
13124;BME280;6627;50.920;12.050;2023-04-21T02:26:59;98582.94;;;13.70;50.65
13124;BME280;6627;50.920;12.050;2023-04-21T02:29:27;98556.91;;;13.52;50.47
13124;BME280;6627;50.920;12.050;2023-04-21T02:31:56;98532.84;;;13.24;51.52
13124;BME280;6627;50.920;12.050;2023-04-21T02:34:23;98508.81;;;13.26;50.68
13124;BME280;6627;50.920;12.050;2023-04-21T02:36:50;98387.75;;;12.38;51.69
13124;BME280;6627;50.920;12.050;2023-04-21T02:39:18;98371.47;;;12.21;52.03
13124;BME280;6627;50.920;12.050;2023-04-21T02:41:45;98487.75;;;12.88;52.20
13124;BME280;6627;50.920;12.050;2023-04-21T02:44:13;98537.28;;;13.37;51.20
13124;BME280;6627;50.920;12.050;2023-04-21T02:46:41;98485.16;;;13.01;51.60
13124;BME280;6627;50.920;12.050;2023-04-21T02:49:10;98444.91;;;12.85;51.61
13124;BME280;6627;50.920;12.050;2023-04-21T02:51:38;98473.34;;;12.97;51.65
13124;BME280;6627;50.920;12.050;2023-04-21T02:54:05;98440.16;;;12.30;53.13
13124;BME280;6627;50.920;12.050;2023-04-21T02:56:37;98339.84;;;12.25;51.82
13124;BME280;6627;50.920;12.050;2023-04-21T02:59:05;98372.59;;;12.03;53.29
13124;BME280;6627;50.920;12.050;2023-04-21T03:01:32;98613.16;;;13.95;51.07
13124;BME280;6627;50.920;12.050;2023-04-21T03:03:59;98539.25;;;13.67;50.12
13124;BME280;6627;50.920;12.050;2023-04-21T03:06:28;98593.22;;;14.03;49.56
13124;BME280;6627;50.920;12.050;2023-04-21T03:08:55;98441.44;;;12.59;52.04
13124;BME280;6627;50.920;12.050;2023-04-21T03:11:23;98449.94;;;12.49;52.62
13124;BME280;6627;50.920;12.050;2023-04-21T03:13:50;98528.16;;;13.33;51.13
13124;BME280;6627;50.920;12.050;2023-04-21T03:16:17;98502.38;;;13.40;50.27
13124;BME280;6627;50.920;12.050;2023-04-21T03:18:45;98402.00;;;12.27;52.40
13124;BME280;6627;50.920;12.050;2023-04-21T03:21:12;98581.44;;;13.17;52.55
13124;BME280;6627;50.920;12.050;2023-04-21T03:23:41;98536.66;;;13.23;51.68
13124;BME280;6627;50.920;12.050;2023-04-21T03:26:08;98465.03;;;13.02;50.58
13124;BME280;6627;50.920;12.050;2023-04-21T03:28:36;98387.28;;;11.84;53.44
13124;BME280;6627;50.920;12.050;2023-04-21T03:31:03;98589.03;;;13.67;51.18
13124;BME280;6627;50.920;12.050;2023-04-21T03:33:32;98543.13;;;13.57;50.68
13124;BME280;6627;50.920;12.050;2023-04-21T03:35:59;98596.97;;;13.89;50.22
13124;BME280;6627;50.920;12.050;2023-04-21T03:38:27;98340.81;;;11.60;53.01
13124;BME280;6627;50.920;12.050;2023-04-21T03:41:00;98446.84;;;12.07;54.67
13124;BME280;6627;50.920;12.050;2023-04-21T03:43:27;98595.03;;;13.34;52.73
13124;BME280;6627;50.920;12.050;2023-04-21T03:45:54;98578.47;;;13.74;50.39
13124;BME280;6627;50.920;12.050;2023-04-21T03:48:22;98457.25;;;12.66;51.81
13124;BME280;6627;50.920;12.050;2023-04-21T03:50:49;98423.88;;;12.30;52.28
13124;BME280;6627;50.920;12.050;2023-04-21T03:53:19;98290.31;;;11.07;53.75
13124;BME280;6627;50.920;12.050;2023-04-21T03:55:49;98428.88;;;11.71;55.07
13124;BME280;6627;50.920;12.050;2023-04-21T03:58:17;98469.22;;;12.21;54.57
13124;BME280;6627;50.920;12.050;2023-04-21T04:00:45;98516.06;;;12.70;53.36
13124;BME280;6627;50.920;12.050;2023-04-21T04:03:12;98450.72;;;12.41;53.04
13124;BME280;6627;50.920;12.050;2023-04-21T04:05:39;98557.59;;;13.23;52.04
13124;BME280;6627;50.920;12.050;2023-04-21T04:08:07;98498.94;;;12.78;52.14
13124;BME280;6627;50.920;12.050;2023-04-21T04:10:34;98451.16;;;12.69;51.39
13124;BME280;6627;50.920;12.050;2023-04-21T04:13:08;98537.94;;;12.82;53.07
13124;BME280;6627;50.920;12.050;2023-04-21T04:15:37;98511.41;;;12.97;51.78
13124;BME280;6627;50.920;12.050;2023-04-21T04:18:04;98464.28;;;12.41;52.76
13124;BME280;6627;50.920;12.050;2023-04-21T04:20:32;98538.63;;;12.79;52.60
13124;BME280;6627;50.920;12.050;2023-04-21T04:23:00;98586.53;;;13.36;51.84
13124;BME280;6627;50.920;12.050;2023-04-21T04:25:28;98614.34;;;13.59;51.72
13124;BME280;6627;50.920;12.050;2023-04-21T04:27:55;98582.63;;;13.72;50.53
13124;BME280;6627;50.920;12.050;2023-04-21T04:30:23;98587.09;;;13.76;49.90
13124;BME280;6627;50.920;12.050;2023-04-21T04:32:54;98581.19;;;13.74;49.55
13124;BME280;6627;50.920;12.050;2023-04-21T04:35:23;98487.75;;;13.06;50.40
13124;BME280;6627;50.920;12.050;2023-04-21T04:37:51;98547.38;;;13.11;52.19
13124;BME280;6627;50.920;12.050;2023-04-21T04:40:20;98576.56;;;13.66;50.13
13124;BME280;6627;50.920;12.050;2023-04-21T04:42:50;98554.94;;;13.70;49.70
13124;BME280;6627;50.920;12.050;2023-04-21T04:45:18;98439.50;;;12.68;51.30
13124;BME280;6627;50.920;12.050;2023-04-21T04:47:48;98675.41;;;14.05;50.60
13124;BME280;6627;50.920;12.050;2023-04-21T04:50:18;98586.75;;;13.86;49.75
13124;BME280;6627;50.920;12.050;2023-04-21T04:52:46;98471.44;;;13.06;50.59
13124;BME280;6627;50.920;12.050;2023-04-21T04:55:14;98533.13;;;13.14;51.41
13124;BME280;6627;50.920;12.050;2023-04-21T04:57:43;98554.56;;;13.42;51.21
13124;BME280;6627;50.920;12.050;2023-04-21T05:00:10;98602.47;;;13.72;50.92
13124;BME280;6627;50.920;12.050;2023-04-21T05:02:39;98647.75;;;14.32;49.38
13124;BME280;6627;50.920;12.050;2023-04-21T05:05:07;98601.69;;;14.10;48.94
13124;BME280;6627;50.920;12.050;2023-04-21T05:07:36;98496.34;;;13.25;49.85
13124;BME280;6627;50.920;12.050;2023-04-21T05:10:03;98547.22;;;13.33;51.10
13124;BME280;6627;50.920;12.050;2023-04-21T05:12:31;98606.66;;;13.61;50.90
13124;BME280;6627;50.920;12.050;2023-04-21T05:14:59;98583.84;;;13.27;51.69
13124;BME280;6627;50.920;12.050;2023-04-21T05:17:27;98560.03;;;13.24;51.35
13124;BME280;6627;50.920;12.050;2023-04-21T05:19:56;98684.75;;;14.33;49.90
13124;BME280;6627;50.920;12.050;2023-04-21T05:22:24;98792.53;;;15.07;49.54
13124;BME280;6627;50.920;12.050;2023-04-21T05:24:53;98621.38;;;13.77;50.58
13124;BME280;6627;50.920;12.050;2023-04-21T05:27:20;98745.78;;;14.50;50.71
13124;BME280;6627;50.920;12.050;2023-04-21T05:29:48;98652.03;;;14.04;50.32
13124;BME280;6627;50.920;12.050;2023-04-21T05:32:15;98803.56;;;14.81;51.19
13124;BME280;6627;50.920;12.050;2023-04-21T05:34:44;98759.81;;;14.69;50.86
13124;BME280;6627;50.920;12.050;2023-04-21T05:37:12;98832.03;;;15.60;49.58
13124;BME280;6627;50.920;12.050;2023-04-21T05:39:39;98839.59;;;15.55;49.61
13124;BME280;6627;50.920;12.050;2023-04-21T05:42:10;98919.88;;;16.13;49.40
13124;BME280;6627;50.920;12.050;2023-04-21T05:44:37;98896.44;;;16.12;49.06
13124;BME280;6627;50.920;12.050;2023-04-21T05:47:07;98846.38;;;15.78;49.16
13124;BME280;6627;50.920;12.050;2023-04-21T05:49:34;98818.28;;;15.27;50.82
13124;BME280;6627;50.920;12.050;2023-04-21T05:52:02;98816.41;;;15.40;50.83
13124;BME280;6627;50.920;12.050;2023-04-21T05:54:29;98926.28;;;16.17;50.54
13124;BME280;6627;50.920;12.050;2023-04-21T05:56:57;98942.25;;;16.69;49.58
13124;BME280;6627;50.920;12.050;2023-04-21T05:59:26;98902.41;;;16.26;50.12
13124;BME280;6627;50.920;12.050;2023-04-21T06:01:54;98837.41;;;15.99;49.87
13124;BME280;6627;50.920;12.050;2023-04-21T06:04:27;98820.31;;;15.60;50.97
13124;BME280;6627;50.920;12.050;2023-04-21T06:06:54;98924.22;;;16.35;50.71
13124;BME280;6627;50.920;12.050;2023-04-21T06:09:21;98840.69;;;16.25;49.84
13124;BME280;6627;50.920;12.050;2023-04-21T06:11:49;98940.75;;;16.38;52.12
13124;BME280;6627;50.920;12.050;2023-04-21T06:14:16;98932.91;;;16.70;51.02
13124;BME280;6627;50.920;12.050;2023-04-21T06:16:45;98982.78;;;17.09;51.04
13124;BME280;6627;50.920;12.050;2023-04-21T06:19:12;98910.34;;;16.73;50.72
13124;BME280;6627;50.920;12.050;2023-04-21T06:21:40;98891.69;;;16.54;51.07
13124;BME280;6627;50.920;12.050;2023-04-21T06:24:08;98903.19;;;16.48;51.72
13124;BME280;6627;50.920;12.050;2023-04-21T06:26:36;99066.69;;;18.08;49.96
13124;BME280;6627;50.920;12.050;2023-04-21T06:29:03;99047.03;;;18.06;49.89
13124;BME280;6627;50.920;12.050;2023-04-21T06:31:30;99029.00;;;18.05;49.34
13124;BME280;6627;50.920;12.050;2023-04-21T06:33:59;98984.66;;;17.66;50.39
13124;BME280;6627;50.920;12.050;2023-04-21T06:36:26;99041.22;;;18.07;49.94
13124;BME280;6627;50.920;12.050;2023-04-21T06:38:54;98987.81;;;17.89;49.39
13124;BME280;6627;50.920;12.050;2023-04-21T06:41:21;98974.16;;;17.56;50.84
13124;BME280;6627;50.920;12.050;2023-04-21T06:43:49;98965.72;;;17.61;50.60
13124;BME280;6627;50.920;12.050;2023-04-21T06:46:17;99126.81;;;19.14;49.26
13124;BME280;6627;50.920;12.050;2023-04-21T06:48:44;99064.75;;;18.98;48.35
13124;BME280;6627;50.920;12.050;2023-04-21T06:51:13;99026.41;;;18.73;48.91
13124;BME280;6627;50.920;12.050;2023-04-21T06:53:40;99131.31;;;18.95;49.85
13124;BME280;6627;50.920;12.050;2023-04-21T06:56:07;99089.69;;;19.21;48.91
13124;BME280;6627;50.920;12.050;2023-04-21T06:58:36;99078.22;;;19.03;49.44
13124;BME280;6627;50.920;12.050;2023-04-21T07:01:03;99016.13;;;18.70;49.76
13124;BME280;6627;50.920;12.050;2023-04-21T07:03:30;99136.94;;;19.82;48.01
13124;BME280;6627;50.920;12.050;2023-04-21T07:05:57;99143.69;;;20.01;47.07
13124;BME280;6627;50.920;12.050;2023-04-21T07:08:26;99149.84;;;20.26;46.48
13124;BME280;6627;50.920;12.050;2023-04-21T07:10:53;99094.03;;;19.94;46.65
13124;BME280;6627;50.920;12.050;2023-04-21T07:13:20;99028.41;;;19.76;46.39
13124;BME280;6627;50.920;12.050;2023-04-21T07:15:48;99007.03;;;19.70;46.30
13124;BME280;6627;50.920;12.050;2023-04-21T07:18:16;99044.50;;;20.25;45.13
13124;BME280;6627;50.920;12.050;2023-04-21T07:20:44;99022.56;;;19.94;45.85
13124;BME280;6627;50.920;12.050;2023-04-21T07:23:13;99118.66;;;20.69;45.38
13124;BME280;6627;50.920;12.050;2023-04-21T07:25:41;99049.00;;;20.49;44.84
13124;BME280;6627;50.920;12.050;2023-04-21T07:28:10;99119.44;;;21.05;44.26
13124;BME280;6627;50.920;12.050;2023-04-21T07:30:40;99122.94;;;21.21;44.07
13124;BME280;6627;50.920;12.050;2023-04-21T07:33:07;99132.44;;;21.43;43.96
13124;BME280;6627;50.920;12.050;2023-04-21T07:35:35;99039.50;;;21.21;43.08
13124;BME280;6627;50.920;12.050;2023-04-21T07:38:02;99097.06;;;21.68;42.55
13124;BME280;6627;50.920;12.050;2023-04-21T07:40:29;98943.63;;;20.87;42.60
13124;BME280;6627;50.920;12.050;2023-04-21T07:42:58;99048.00;;;21.54;42.82
13124;BME280;6627;50.920;12.050;2023-04-21T07:45:25;99045.31;;;21.58;42.45
13124;BME280;6627;50.920;12.050;2023-04-21T07:47:53;99132.81;;;22.07;41.95
13124;BME280;6627;50.920;12.050;2023-04-21T07:50:20;99128.75;;;22.20;42.27
13124;BME280;6627;50.920;12.050;2023-04-21T07:52:47;99029.94;;;21.57;42.64
13124;BME280;6627;50.920;12.050;2023-04-21T07:55:14;98982.13;;;21.26;43.32
13124;BME280;6627;50.920;12.050;2023-04-21T07:57:42;99092.56;;;22.25;41.92
13124;BME280;6627;50.920;12.050;2023-04-21T08:00:13;99072.44;;;22.25;41.50
13124;BME280;6627;50.920;12.050;2023-04-21T08:02:40;99195.28;;;22.87;41.49
13124;BME280;6627;50.920;12.050;2023-04-21T08:05:08;99332.19;;;24.21;40.16
13124;BME280;6627;50.920;12.050;2023-04-21T08:07:36;99095.56;;;23.26;39.81
13124;BME280;6627;50.920;12.050;2023-04-21T08:10:06;99200.72;;;24.01;39.87
13124;BME280;6627;50.920;12.050;2023-04-21T08:12:34;99058.59;;;23.38;39.44
13124;BME280;6627;50.920;12.050;2023-04-21T08:15:02;99020.34;;;23.10;40.03
13124;BME280;6627;50.920;12.050;2023-04-21T08:17:35;99052.66;;;23.39;39.47
13124;BME280;6627;50.920;12.050;2023-04-21T08:20:03;98914.91;;;22.67;39.93
13124;BME280;6627;50.920;12.050;2023-04-21T08:22:31;99069.06;;;23.59;39.73
13124;BME280;6627;50.920;12.050;2023-04-21T08:24:58;99164.38;;;24.47;38.71
13124;BME280;6627;50.920;12.050;2023-04-21T08:27:25;99201.69;;;24.60;39.25
13124;BME280;6627;50.920;12.050;2023-04-21T08:29:53;99295.25;;;25.95;36.66
13124;BME280;6627;50.920;12.050;2023-04-21T08:32:21;99009.16;;;24.25;38.12
13124;BME280;6627;50.920;12.050;2023-04-21T08:34:51;99037.44;;;24.56;37.64
13124;BME280;6627;50.920;12.050;2023-04-21T08:37:20;99021.44;;;24.28;38.59
13124;BME280;6627;50.920;12.050;2023-04-21T08:39:49;99110.59;;;25.17;37.30
13124;BME280;6627;50.920;12.050;2023-04-21T08:42:17;99017.72;;;24.68;37.11
13124;BME280;6627;50.920;12.050;2023-04-21T08:44:45;99034.38;;;24.79;37.74
13124;BME280;6627;50.920;12.050;2023-04-21T08:47:14;99101.91;;;25.15;37.95
13124;BME280;6627;50.920;12.050;2023-04-21T08:49:42;99083.69;;;25.21;37.31
13124;BME280;6627;50.920;12.050;2023-04-21T08:52:12;99160.03;;;26.06;36.67
13124;BME280;6627;50.920;12.050;2023-04-21T08:54:40;99137.03;;;25.95;36.20
13124;BME280;6627;50.920;12.050;2023-04-21T08:57:07;99104.47;;;25.84;36.70
13124;BME280;6627;50.920;12.050;2023-04-21T08:59:36;98991.03;;;25.29;36.70
13124;BME280;6627;50.920;12.050;2023-04-21T09:02:12;98898.25;;;24.80;36.44
13124;BME280;6627;50.920;12.050;2023-04-21T09:04:44;98945.38;;;24.91;37.03
13124;BME280;6627;50.920;12.050;2023-04-21T09:07:30;98782.09;;;23.97;37.19
13124;BME280;6627;50.920;12.050;2023-04-21T09:09:59;99051.72;;;25.70;36.54
13124;BME280;6627;50.920;12.050;2023-04-21T09:12:27;98975.59;;;25.28;36.20
13124;BME280;6627;50.920;12.050;2023-04-21T09:14:54;99082.28;;;25.81;36.32
13124;BME280;6627;50.920;12.050;2023-04-21T09:17:29;99053.72;;;25.80;35.84
13124;BME280;6627;50.920;12.050;2023-04-21T09:20:11;98983.13;;;25.53;35.71
13124;BME280;6627;50.920;12.050;2023-04-21T09:22:41;99082.69;;;26.22;35.53
13124;BME280;6627;50.920;12.050;2023-04-21T09:25:09;99239.06;;;27.19;34.87
13124;BME280;6627;50.920;12.050;2023-04-21T09:27:36;99145.69;;;27.00;34.64
13124;BME280;6627;50.920;12.050;2023-04-21T09:30:05;98808.44;;;25.24;35.38
13124;BME280;6627;50.920;12.050;2023-04-21T09:32:37;99003.00;;;26.12;35.69
13124;BME280;6627;50.920;12.050;2023-04-21T09:35:09;98962.53;;;25.75;36.41
13124;BME280;6627;50.920;12.050;2023-04-21T09:37:38;98949.09;;;25.77;35.37
13124;BME280;6627;50.920;12.050;2023-04-21T09:40:11;98932.84;;;25.86;35.16
13124;BME280;6627;50.920;12.050;2023-04-21T09:42:40;99050.09;;;26.69;34.46
13124;BME280;6627;50.920;12.050;2023-04-21T09:45:09;99046.09;;;26.77;34.63
13124;BME280;6627;50.920;12.050;2023-04-21T09:47:40;98931.53;;;26.23;34.45
13124;BME280;6627;50.920;12.050;2023-04-21T09:50:10;98783.44;;;25.53;34.46
13124;BME280;6627;50.920;12.050;2023-04-21T09:52:39;99000.50;;;26.60;34.41
13124;BME280;6627;50.920;12.050;2023-04-21T09:55:12;98833.28;;;25.99;33.62
13124;BME280;6627;50.920;12.050;2023-04-21T09:57:41;98979.91;;;26.47;34.50
13124;BME280;6627;50.920;12.050;2023-04-21T10:00:12;98966.34;;;26.60;34.56
13124;BME280;6627;50.920;12.050;2023-04-21T10:02:44;99038.38;;;27.24;33.55
13124;BME280;6627;50.920;12.050;2023-04-21T10:05:14;98957.59;;;26.72;33.86
13124;BME280;6627;50.920;12.050;2023-04-21T10:07:44;98879.53;;;26.45;33.41
13124;BME280;6627;50.920;12.050;2023-04-21T10:10:20;98913.97;;;26.62;33.27
13124;BME280;6627;50.920;12.050;2023-04-21T10:12:51;98869.28;;;26.98;31.24
13124;BME280;6627;50.920;12.050;2023-04-21T10:15:30;98739.41;;;26.50;31.54
13124;BME280;6627;50.920;12.050;2023-04-21T10:18:18;98975.09;;;27.91;30.85
13124;BME280;6627;50.920;12.050;2023-04-21T10:20:54;98649.31;;;26.51;31.18
13124;BME280;6627;50.920;12.050;2023-04-21T10:23:32;99079.06;;;29.35;29.35
13124;BME280;6627;50.920;12.050;2023-04-21T10:26:08;98813.59;;;28.25;29.59
13124;BME280;6627;50.920;12.050;2023-04-21T10:28:52;98939.94;;;29.07;29.63
13124;BME280;6627;50.920;12.050;2023-04-21T10:31:33;98770.97;;;28.28;29.46
13124;BME280;6627;50.920;12.050;2023-04-21T10:34:16;98703.63;;;28.06;29.26
13124;BME280;6627;50.920;12.050;2023-04-21T10:37:12;98653.63;;;27.72;29.57
13124;BME280;6627;50.920;12.050;2023-04-21T10:39:55;98708.06;;;28.04;29.42
13124;BME280;6627;50.920;12.050;2023-04-21T10:42:27;98489.75;;;27.20;29.16
13124;BME280;6627;50.920;12.050;2023-04-21T10:45:11;98506.75;;;26.95;29.85
13124;BME280;6627;50.920;12.050;2023-04-21T10:47:45;98476.59;;;26.59;30.05
13124;BME280;6627;50.920;12.050;2023-04-21T10:50:20;98615.47;;;27.38;29.84
13124;BME280;6627;50.920;12.050;2023-04-21T10:52:55;98788.63;;;28.49;29.14
13124;BME280;6627;50.920;12.050;2023-04-21T10:55:27;98559.03;;;27.38;29.52
13124;BME280;6627;50.920;12.050;2023-04-21T10:57:57;98642.06;;;27.74;29.88
13124;BME280;6627;50.920;12.050;2023-04-21T11:00:27;98619.00;;;27.73;29.26
13124;BME280;6627;50.920;12.050;2023-04-21T11:02:56;98567.34;;;27.41;29.16
13124;BME280;6627;50.920;12.050;2023-04-21T11:05:34;98626.53;;;27.76;29.28
13124;BME280;6627;50.920;12.050;2023-04-21T11:08:12;98677.22;;;28.18;28.55
13124;BME280;6627;50.920;12.050;2023-04-21T11:10:52;98533.53;;;27.43;28.73
13124;BME280;6627;50.920;12.050;2023-04-21T11:13:23;98724.19;;;28.70;28.47
13124;BME280;6627;50.920;12.050;2023-04-21T11:15:58;98763.66;;;28.92;28.39
13124;BME280;6627;50.920;12.050;2023-04-21T11:18:40;98443.97;;;27.28;29.27
13124;BME280;6627;50.920;12.050;2023-04-21T11:21:13;98302.97;;;26.48;29.33
13124;BME280;6627;50.920;12.050;2023-04-21T11:23:54;98425.97;;;27.09;29.14
13124;BME280;6627;50.920;12.050;2023-04-21T11:26:34;98457.00;;;27.31;28.92
13124;BME280;6627;50.920;12.050;2023-04-21T11:29:06;98515.41;;;27.31;29.60
13124;BME280;6627;50.920;12.050;2023-04-21T11:31:35;98455.03;;;27.32;28.52
13124;BME280;6627;50.920;12.050;2023-04-21T11:34:06;98585.66;;;27.66;28.92
13124;BME280;6627;50.920;12.050;2023-04-21T11:36:35;98631.75;;;28.25;28.11
13124;BME280;6627;50.920;12.050;2023-04-21T11:39:04;98538.91;;;27.84;28.13
13124;BME280;6627;50.920;12.050;2023-04-21T11:41:34;98807.28;;;29.06;27.90
13124;BME280;6627;50.920;12.050;2023-04-21T11:44:03;98752.28;;;29.50;27.42
13124;BME280;6627;50.920;12.050;2023-04-21T11:46:31;98783.25;;;29.59;28.19
13124;BME280;6627;50.920;12.050;2023-04-21T11:49:01;98431.63;;;28.03;27.46
13124;BME280;6627;50.920;12.050;2023-04-21T11:51:33;98684.91;;;29.71;26.61
13124;BME280;6627;50.920;12.050;2023-04-21T11:54:01;98550.09;;;28.95;27.28
13124;BME280;6627;50.920;12.050;2023-04-21T11:56:34;98647.94;;;29.44;27.25
13124;BME280;6627;50.920;12.050;2023-04-21T11:59:07;98460.16;;;28.51;27.31
13124;BME280;6627;50.920;12.050;2023-04-21T12:01:42;98532.53;;;28.98;26.75
13124;BME280;6627;50.920;12.050;2023-04-21T12:04:13;98548.25;;;29.08;26.97
13124;BME280;6627;50.920;12.050;2023-04-21T12:06:43;98499.38;;;29.20;26.08
13124;BME280;6627;50.920;12.050;2023-04-21T12:09:16;98557.25;;;29.35;26.96
13124;BME280;6627;50.920;12.050;2023-04-21T12:11:47;98455.19;;;29.18;25.84
13124;BME280;6627;50.920;12.050;2023-04-21T12:14:19;98380.56;;;28.70;26.28
13124;BME280;6627;50.920;12.050;2023-04-21T12:16:48;98358.78;;;28.64;26.33
13124;BME280;6627;50.920;12.050;2023-04-21T12:19:23;98429.97;;;28.85;26.40
13124;BME280;6627;50.920;12.050;2023-04-21T12:21:55;98394.91;;;28.68;26.32
13124;BME280;6627;50.920;12.050;2023-04-21T12:24:22;98269.19;;;28.10;26.39
13124;BME280;6627;50.920;12.050;2023-04-21T12:26:50;98447.09;;;28.87;26.43
13124;BME280;6627;50.920;12.050;2023-04-21T12:29:19;98181.78;;;27.48;26.75
13124;BME280;6627;50.920;12.050;2023-04-21T12:31:46;98345.34;;;28.20;26.87
13124;BME280;6627;50.920;12.050;2023-04-21T12:34:13;98432.44;;;28.83;26.27
13124;BME280;6627;50.920;12.050;2023-04-21T12:36:42;98299.03;;;28.29;26.16
13124;BME280;6627;50.920;12.050;2023-04-21T12:39:09;98347.00;;;28.57;25.92
13124;BME280;6627;50.920;12.050;2023-04-21T12:41:36;98498.91;;;29.41;25.80
13124;BME280;6627;50.920;12.050;2023-04-21T12:44:05;98273.28;;;28.41;25.72
13124;BME280;6627;50.920;12.050;2023-04-21T12:46:34;98478.41;;;29.31;26.27
13124;BME280;6627;50.920;12.050;2023-04-21T12:49:01;98200.00;;;28.08;25.54
13124;BME280;6627;50.920;12.050;2023-04-21T12:51:29;98459.06;;;29.40;25.56
13124;BME280;6627;50.920;12.050;2023-04-21T12:53:56;98288.03;;;28.58;25.69
13124;BME280;6627;50.920;12.050;2023-04-21T12:56:24;98363.47;;;29.04;25.46
13124;BME280;6627;50.920;12.050;2023-04-21T12:58:51;98449.81;;;29.44;26.00
13124;BME280;6627;50.920;12.050;2023-04-21T13:01:20;98484.03;;;29.64;26.09
13124;BME280;6627;50.920;12.050;2023-04-21T13:03:50;98405.34;;;29.36;25.49
13124;BME280;6627;50.920;12.050;2023-04-21T13:06:17;98284.13;;;28.56;26.26
13124;BME280;6627;50.920;12.050;2023-04-21T13:08:45;98366.81;;;29.31;25.24
13124;BME280;6627;50.920;12.050;2023-04-21T13:11:12;98313.06;;;28.95;26.06